createdAt,value
2022-10-19T00:00:29.022Z,72.17
2022-10-19T00:01:31.054Z,72.54
2022-10-19T00:02:37.237Z,72.19
2022-10-19T00:03:40.031Z,72.57
2022-10-19T00:04:43.076Z,72.58
2022-10-19T00:05:45.152Z,72.75
2022-10-19T00:06:50.125Z,72.36
2022-10-19T00:07:52.188Z,72.94
2022-10-19T00:08:56.561Z,72.28
2022-10-19T00:09:58.410Z,72.91
2022-10-19T00:11:02.357Z,72.60
2022-10-19T00:12:04.236Z,72.53
2022-10-19T00:13:06.983Z,72.30
2022-10-19T00:14:14.137Z,72.56
2022-10-19T00:15:16.934Z,72.61
2022-10-19T00:16:19.456Z,72.63
2022-10-19T00:17:22.269Z,72.86
2022-10-19T00:18:25.620Z,72.56
2022-10-19T00:19:29.168Z,72.81
2022-10-19T00:20:31.478Z,72.60
2022-10-19T00:21:34.748Z,72.69
2022-10-19T00:22:36.575Z,72.56
2022-10-19T00:23:39.394Z,72.84
2022-10-19T00:24:41.226Z,72.77
2022-10-19T00:25:44.061Z,72.94
2022-10-19T00:26:46.312Z,72.85
2022-10-19T00:27:49.095Z,72.84
2022-10-19T00:28:53.512Z,72.57
2022-10-19T00:29:56.337Z,72.94
2022-10-19T00:31:03.342Z,72.76
2022-10-19T00:32:06.452Z,72.74
2022-10-19T00:33:08.399Z,73.17
2022-10-19T00:34:13.385Z,73.12
2022-10-19T00:35:15.433Z,73.15
2022-10-19T00:36:21.159Z,72.81
2022-10-19T00:37:23.126Z,72.59
2022-10-19T00:38:26.463Z,72.81
2022-10-19T00:39:28.324Z,73.30
2022-10-19T00:40:31.075Z,73.06
2022-10-19T00:41:34.857Z,73.45
2022-10-19T00:42:37.671Z,73.20
2022-10-19T00:43:55.603Z,73.22
2022-10-19T00:45:02.904Z,73.11
2022-10-19T00:46:04.928Z,73.35
2022-10-19T00:47:09.458Z,73.23
2022-10-19T00:48:17.229Z,73.26
2022-10-19T00:49:24.405Z,73.37
2022-10-19T00:50:26.289Z,73.61
2022-10-19T00:51:30.447Z,73.50
2022-10-19T00:52:32.818Z,73.02
2022-10-19T00:53:37.646Z,73.26
2022-10-19T00:54:41.941Z,73.49
2022-10-19T00:55:45.311Z,73.45
2022-10-19T00:56:49.850Z,73.44
2022-10-19T00:57:53.353Z,73.24
2022-10-19T00:58:55.974Z,73.04
2022-10-19T01:00:01.393Z,73.23
2022-10-19T01:01:05.843Z,73.46
2022-10-19T01:02:09.453Z,73.30
2022-10-19T01:03:12.885Z,73.49
2022-10-19T01:04:16.516Z,73.61
2022-10-19T01:05:19.988Z,73.38
2022-10-19T01:06:25.305Z,73.43
2022-10-19T01:07:27.817Z,73.45
2022-10-19T01:08:31.620Z,73.31
2022-10-19T01:09:33.507Z,73.68
2022-10-19T01:10:46.036Z,73.54
2022-10-19T01:11:53.998Z,73.24
2022-10-19T01:13:11.495Z,73.14
2022-10-19T01:14:24.979Z,73.19
2022-10-19T01:15:35.278Z,73.20
2022-10-19T01:16:51.879Z,73.27
2022-10-19T01:18:01.140Z,73.15
2022-10-19T01:19:25.666Z,73.23
2022-10-19T01:21:20.000Z,73.27
2022-10-19T01:22:37.423Z,73.25
2022-10-19T01:24:22.146Z,72.91
2022-10-19T01:25:29.168Z,73.34
2022-10-19T01:26:48.499Z,73.24
2022-10-19T01:28:04.162Z,73.72
2022-10-19T01:29:15.398Z,73.38
2022-10-19T01:30:30.132Z,73.75
2022-10-19T01:31:38.242Z,73.61
2022-10-19T01:33:07.331Z,73.43
2022-10-19T01:34:13.698Z,73.39
2022-10-19T01:35:26.103Z,73.33
2022-10-19T01:36:35.391Z,73.87
2022-10-19T01:37:45.938Z,73.57
2022-10-19T01:38:52.668Z,73.79
2022-10-19T01:40:02.180Z,73.54
2022-10-19T01:41:14.840Z,73.15
2022-10-19T01:42:25.196Z,73.64
2022-10-19T01:43:37.938Z,73.85
2022-10-19T01:44:44.096Z,73.52
2022-10-19T01:45:52.372Z,73.84
2022-10-19T01:46:58.700Z,73.55
2022-10-19T01:48:05.550Z,73.65
2022-10-19T01:49:15.382Z,73.67
2022-10-19T01:50:24.800Z,73.50
2022-10-19T01:51:31.605Z,73.59
2022-10-19T01:52:34.206Z,73.93
2022-10-19T01:53:44.621Z,73.58
2022-10-19T01:54:50.410Z,73.71
2022-10-19T01:55:56.451Z,73.37
2022-10-19T01:57:01.874Z,73.76
2022-10-19T01:58:09.699Z,73.78
2022-10-19T01:59:14.085Z,73.62
2022-10-19T02:00:18.219Z,73.65
2022-10-19T02:01:24.220Z,73.87
2022-10-19T02:02:28.939Z,73.60
2022-10-19T02:03:32.046Z,73.71
2022-10-19T02:04:36.707Z,73.75
2022-10-19T02:05:40.641Z,73.82
2022-10-19T02:06:44.116Z,73.40
2022-10-19T02:07:51.275Z,73.57
2022-10-19T02:08:55.594Z,73.93
2022-10-19T02:09:57.689Z,73.83
2022-10-19T02:11:02.583Z,73.47
2022-10-19T02:12:10.395Z,73.88
2022-10-19T02:13:16.021Z,73.98
2022-10-19T02:14:22.695Z,73.83
2022-10-19T02:15:27.000Z,74.23
2022-10-19T02:16:38.056Z,73.69
2022-10-19T02:17:46.275Z,73.91
2022-10-19T02:18:52.101Z,74.01
2022-10-19T02:19:54.766Z,74.09
2022-10-19T02:20:58.430Z,74.16
2022-10-19T02:22:00.628Z,74.01
2022-10-19T02:23:04.746Z,74.09
2022-10-19T02:24:06.779Z,74.03
2022-10-19T02:25:10.731Z,73.91
2022-10-19T02:26:12.829Z,74.12
2022-10-19T02:27:15.688Z,73.94
2022-10-19T02:28:18.159Z,73.76
2022-10-19T02:29:21.547Z,74.21
2022-10-19T02:30:23.600Z,74.34
2022-10-19T02:31:27.846Z,74.51
2022-10-19T02:32:31.483Z,74.33
2022-10-19T02:33:34.918Z,74.09
2022-10-19T02:34:38.628Z,74.06
2022-10-19T02:35:41.956Z,74.34
2022-10-19T02:36:44.327Z,74.41
2022-10-19T02:37:47.428Z,74.50
2022-10-19T02:38:49.626Z,74.37
2022-10-19T02:39:52.666Z,74.40
2022-10-19T02:41:02.344Z,74.10
2022-10-19T02:42:11.363Z,74.45
2022-10-19T02:43:19.210Z,74.04
2022-10-19T02:44:27.296Z,73.91
2022-10-19T02:45:31.877Z,74.38
2022-10-19T02:47:52.169Z,74.17
2022-10-19T02:48:57.796Z,74.49
2022-10-19T02:50:00.115Z,74.52
2022-10-19T02:51:03.244Z,74.47
2022-10-19T02:52:07.699Z,74.29
2022-10-19T02:53:10.508Z,74.08
2022-10-19T02:54:12.645Z,74.48
2022-10-19T02:55:15.460Z,74.25
2022-10-19T02:56:17.410Z,74.50
2022-10-19T02:57:21.937Z,73.84
2022-10-19T02:58:23.820Z,74.09
2022-10-19T02:59:27.108Z,74.49
2022-10-19T03:00:28.955Z,74.59
2022-10-19T03:01:31.832Z,74.10
2022-10-19T03:02:33.790Z,74.60
2022-10-19T03:03:37.883Z,74.34
2022-10-19T03:04:41.595Z,74.79
2022-10-19T03:05:44.459Z,74.70
2022-10-19T03:06:46.746Z,74.58
2022-10-19T03:07:49.804Z,74.12
2022-10-19T03:08:51.621Z,74.22
2022-10-19T03:09:54.609Z,74.05
2022-10-19T03:10:58.682Z,74.50
2022-10-19T03:12:01.605Z,74.50
2022-10-19T03:13:03.668Z,74.40
2022-10-19T03:14:06.544Z,74.79
2022-10-19T03:15:10.702Z,74.62
2022-10-19T03:16:14.923Z,74.50
2022-10-19T03:17:16.772Z,74.31
2022-10-19T03:18:19.700Z,74.61
2022-10-19T03:19:23.196Z,74.73
2022-10-19T03:20:26.003Z,74.57
2022-10-19T03:21:27.773Z,74.81
2022-10-19T03:22:30.543Z,74.71
2022-10-19T03:23:32.963Z,74.66
2022-10-19T03:24:35.928Z,74.44
2022-10-19T03:25:37.738Z,74.54
2022-10-19T03:26:40.546Z,74.63
2022-10-19T03:27:42.344Z,74.90
2022-10-19T03:28:45.304Z,74.66
2022-10-19T03:29:48.224Z,74.87
2022-10-19T03:30:50.136Z,75.10
2022-10-19T03:31:53.110Z,74.58
2022-10-19T03:32:55.007Z,74.74
2022-10-19T03:33:57.804Z,74.84
2022-10-19T03:35:00.989Z,74.75
2022-10-19T03:36:18.095Z,74.85
2022-10-19T03:37:39.293Z,75.02
2022-10-19T03:38:41.824Z,75.03
2022-10-19T03:39:45.049Z,74.86
2022-10-19T03:40:47.135Z,74.70
2022-10-19T03:41:50.160Z,74.74
2022-10-19T03:42:52.036Z,75.25
2022-10-19T03:43:55.043Z,75.08
2022-10-19T03:44:56.977Z,74.75
2022-10-19T03:45:59.790Z,74.92
2022-10-19T03:47:01.690Z,75.19
2022-10-19T03:48:05.107Z,74.96
2022-10-19T03:49:07.467Z,75.14
2022-10-19T03:50:14.120Z,74.79
2022-10-19T03:51:18.403Z,74.88
2022-10-19T03:52:21.514Z,75.17
2022-10-19T03:53:23.404Z,75.03
2022-10-19T03:54:27.399Z,74.81
2022-10-19T03:55:30.402Z,74.82
2022-10-19T03:56:36.077Z,75.05
2022-10-19T03:57:38.083Z,75.13
2022-10-19T03:58:41.973Z,75.07
2022-10-19T03:59:43.774Z,75.52
2022-10-19T04:00:46.534Z,75.32
2022-10-19T04:01:48.400Z,75.14
2022-10-19T04:02:51.271Z,75.03
2022-10-19T04:03:53.810Z,75.04
2022-10-19T04:04:56.636Z,75.17
2022-10-19T04:06:05.207Z,74.94
2022-10-19T04:07:08.195Z,75.04
2022-10-19T04:08:10.036Z,75.26
2022-10-19T04:09:14.382Z,75.02
2022-10-19T04:10:16.196Z,74.88
2022-10-19T04:11:22.797Z,75.04
2022-10-19T04:12:24.666Z,75.39
2022-10-19T04:13:27.585Z,75.33
2022-10-19T04:14:32.708Z,75.15
2022-10-19T04:15:36.308Z,74.63
2022-10-19T04:16:38.254Z,75.17
2022-10-19T04:17:40.987Z,75.34
2022-10-19T04:18:42.864Z,75.10
2022-10-19T04:19:45.825Z,74.64
2022-10-19T04:20:47.669Z,74.91
2022-10-19T04:21:52.032Z,74.89
2022-10-19T04:22:53.937Z,75.20
2022-10-19T04:24:00.437Z,75.40
2022-10-19T04:25:02.250Z,75.47
2022-10-19T04:26:07.141Z,75.42
2022-10-19T04:27:09.975Z,75.67
2022-10-19T04:28:11.790Z,75.09
2022-10-19T04:29:15.499Z,75.28
2022-10-19T04:30:17.443Z,75.17
2022-10-19T04:31:20.249Z,75.33
2022-10-19T04:32:23.043Z,75.31
2022-10-19T04:33:24.895Z,75.51
2022-10-19T04:34:28.083Z,75.28
2022-10-19T04:35:30.266Z,75.58
2022-10-19T04:36:33.203Z,75.89
2022-10-19T04:37:36.623Z,75.38
2022-10-19T04:38:40.512Z,75.98
2022-10-19T04:39:43.808Z,75.90
2022-10-19T04:40:46.643Z,75.34
2022-10-19T04:41:48.467Z,75.63
2022-10-19T04:42:51.360Z,76.05
2022-10-19T04:43:56.755Z,75.49
2022-10-19T04:44:59.541Z,75.19
2022-10-19T04:46:05.266Z,75.68
2022-10-19T04:47:08.346Z,75.30
2022-10-19T04:48:10.295Z,75.68
2022-10-19T04:49:16.447Z,75.54
2022-10-19T04:50:21.261Z,75.34
2022-10-19T04:51:31.756Z,75.31
2022-10-19T04:52:35.212Z,75.33
2022-10-19T04:53:40.531Z,75.04
2022-10-19T04:54:43.580Z,75.12
2022-10-19T04:55:46.257Z,75.27
2022-10-19T04:56:50.027Z,75.61
2022-10-19T04:57:51.862Z,75.92
2022-10-19T04:58:57.259Z,75.47
2022-10-19T04:59:59.243Z,75.78
2022-10-19T05:01:08.874Z,75.98
2022-10-19T05:02:11.995Z,75.85
2022-10-19T05:03:13.928Z,75.53
2022-10-19T05:04:16.813Z,75.49
2022-10-19T05:05:18.720Z,75.98
2022-10-19T05:06:21.505Z,75.99
2022-10-19T05:07:23.576Z,75.81
2022-10-19T05:08:26.375Z,75.75
2022-10-19T05:09:30.570Z,75.93
2022-10-19T05:10:32.398Z,75.75
2022-10-19T05:11:35.248Z,75.99
2022-10-19T05:12:37.359Z,75.93
2022-10-19T05:13:40.235Z,76.24
2022-10-19T05:14:43.149Z,75.61
2022-10-19T05:15:55.922Z,75.69
2022-10-19T05:16:59.001Z,76.05
2022-10-19T05:18:00.857Z,75.88
2022-10-19T05:19:03.657Z,75.82
2022-10-19T05:20:06.577Z,75.63
2022-10-19T05:21:11.179Z,75.91
2022-10-19T05:22:13.970Z,75.97
2022-10-19T05:23:15.819Z,76.40
2022-10-19T05:24:18.652Z,76.06
2022-10-19T05:25:22.791Z,76.16
2022-10-19T05:26:27.049Z,76.16
2022-10-19T05:27:30.133Z,75.90
2022-10-19T05:28:32.514Z,76.20
2022-10-19T05:29:35.428Z,75.91
2022-10-19T05:30:38.806Z,76.21
2022-10-19T05:31:42.359Z,76.04
2022-10-19T05:32:44.375Z,76.09
2022-10-19T05:33:47.919Z,76.18
2022-10-19T05:34:49.805Z,76.36
2022-10-19T05:35:52.594Z,76.04
2022-10-19T05:36:57.100Z,76.16
2022-10-19T05:37:59.044Z,76.11
2022-10-19T05:39:04.171Z,76.13
2022-10-19T05:40:07.643Z,76.14
2022-10-19T05:41:12.503Z,75.80
2022-10-19T05:42:15.381Z,75.97
2022-10-19T05:43:17.186Z,75.73
2022-10-19T05:44:22.432Z,76.16
2022-10-19T05:45:24.349Z,76.01
2022-10-19T05:46:28.410Z,75.72
2022-10-19T05:47:31.155Z,75.50
2022-10-19T05:48:34.898Z,76.11
2022-10-19T05:49:37.807Z,75.93
2022-10-19T05:50:39.654Z,76.05
2022-10-19T05:51:42.871Z,75.68
2022-10-19T05:52:44.806Z,76.08
2022-10-19T05:53:47.870Z,76.17
2022-10-19T05:54:50.878Z,76.46
2022-10-19T05:55:52.739Z,76.47
2022-10-19T05:56:57.048Z,76.62
2022-10-19T05:57:58.954Z,76.71
2022-10-19T05:59:04.448Z,76.53
2022-10-19T06:00:07.410Z,76.54
2022-10-19T06:01:15.171Z,76.75
2022-10-19T06:02:17.270Z,76.59
2022-10-19T06:03:20.319Z,76.20
2022-10-19T06:04:23.341Z,76.27
2022-10-19T06:05:25.367Z,76.39
2022-10-19T06:06:29.113Z,76.29
2022-10-19T06:07:31.105Z,76.30
2022-10-19T06:08:35.131Z,76.39
2022-10-19T06:09:38.041Z,76.17
2022-10-19T06:10:39.936Z,76.31
2022-10-19T06:11:44.173Z,76.86
2022-10-19T06:12:47.551Z,76.93
2022-10-19T06:13:51.943Z,76.53
2022-10-19T06:14:54.022Z,76.59
2022-10-19T06:15:56.880Z,76.91
2022-10-19T06:16:59.715Z,76.68
2022-10-19T06:18:01.690Z,76.32
2022-10-19T06:19:06.126Z,76.29
2022-10-19T06:20:08.683Z,76.29
2022-10-19T06:21:13.639Z,76.35
2022-10-19T06:22:15.689Z,76.11
2022-10-19T06:23:18.501Z,76.31
2022-10-19T06:24:21.346Z,76.19
2022-10-19T06:25:23.180Z,76.81
2022-10-19T06:26:26.677Z,76.40
2022-10-19T06:27:30.451Z,76.57
2022-10-19T06:28:33.804Z,76.30
2022-10-19T06:29:36.820Z,76.51
2022-10-19T06:30:40.139Z,76.08
2022-10-19T06:31:43.201Z,76.95
2022-10-19T06:32:45.177Z,76.62
2022-10-19T06:33:49.468Z,76.89
2022-10-19T06:34:55.714Z,76.38
2022-10-19T06:36:07.468Z,76.59
2022-10-19T06:37:10.392Z,77.11
2022-10-19T06:38:13.868Z,76.97
2022-10-19T06:39:16.878Z,76.58
2022-10-19T06:40:18.966Z,76.27
2022-10-19T06:41:21.991Z,76.92
2022-10-19T06:42:23.905Z,77.05
2022-10-19T06:43:27.061Z,77.18
2022-10-19T06:44:31.536Z,76.72
2022-10-19T06:45:35.871Z,76.44
2022-10-19T06:46:39.657Z,76.70
2022-10-19T06:47:42.036Z,76.62
2022-10-19T06:48:45.034Z,76.97
2022-10-19T06:49:46.909Z,76.81
2022-10-19T06:50:57.285Z,77.51
2022-10-19T06:52:00.198Z,77.15
2022-10-19T06:53:02.073Z,76.60
2022-10-19T06:54:05.650Z,76.74
2022-10-19T06:55:08.459Z,76.78
2022-10-19T06:56:11.487Z,76.86
2022-10-19T06:57:13.364Z,77.47
2022-10-19T06:58:16.214Z,76.95
2022-10-19T06:59:19.557Z,77.40
2022-10-19T07:00:22.802Z,77.41
2022-10-19T07:01:26.133Z,76.88
2022-10-19T07:02:28.176Z,77.09
2022-10-19T07:03:31.377Z,77.27
2022-10-19T07:04:34.239Z,76.94
2022-10-19T07:05:36.297Z,76.92
2022-10-19T07:06:39.241Z,77.16
2022-10-19T07:07:41.293Z,77.28
2022-10-19T07:08:45.061Z,77.00
2022-10-19T07:09:48.500Z,77.07
2022-10-19T07:10:52.260Z,77.05
2022-10-19T07:11:54.147Z,77.12
2022-10-19T07:12:57.541Z,77.24
2022-10-19T07:14:00.798Z,77.17
2022-10-19T07:15:04.021Z,77.29
2022-10-19T07:16:15.866Z,77.46
2022-10-19T07:17:22.665Z,77.56
2022-10-19T07:18:24.741Z,77.42
2022-10-19T07:19:28.080Z,77.52
2022-10-19T07:20:29.981Z,77.81
2022-10-19T07:21:33.020Z,77.83
2022-10-19T07:22:34.887Z,77.81
2022-10-19T07:23:40.239Z,78.06
2022-10-19T07:24:42.428Z,77.63
2022-10-19T07:25:45.706Z,77.47
2022-10-19T07:26:48.661Z,77.56
2022-10-19T07:27:50.820Z,77.40
2022-10-19T07:28:54.585Z,77.64
2022-10-19T07:29:56.730Z,77.37
2022-10-19T07:31:00.080Z,77.64
2022-10-19T07:32:04.364Z,77.46
2022-10-19T07:33:06.820Z,77.69
2022-10-19T07:34:13.292Z,78.04
2022-10-19T07:35:16.690Z,78.05
2022-10-19T07:36:19.539Z,78.32
2022-10-19T07:37:21.450Z,78.37
2022-10-19T07:38:24.248Z,78.33
2022-10-19T07:39:27.452Z,79.64
2022-10-19T07:40:29.338Z,79.92
2022-10-19T07:41:32.399Z,80.76
2022-10-19T07:42:37.591Z,79.48
2022-10-19T07:43:41.585Z,80.06
2022-10-19T07:44:44.439Z,79.15
2022-10-19T07:45:46.470Z,79.15
2022-10-19T07:46:49.365Z,78.68
2022-10-19T07:47:52.820Z,78.37
2022-10-19T07:48:56.247Z,79.12
2022-10-19T07:49:59.348Z,78.56
2022-10-19T07:51:02.656Z,77.93
2022-10-19T07:52:05.833Z,78.72
2022-10-19T07:53:07.756Z,78.16
2022-10-19T07:54:10.817Z,79.71
2022-10-19T07:55:13.027Z,80.31
2022-10-19T07:56:17.539Z,79.35
2022-10-19T07:57:22.335Z,79.97
2022-10-19T07:58:25.422Z,80.83
2022-10-19T07:59:28.504Z,80.31
2022-10-19T08:00:30.685Z,80.03
2022-10-19T08:01:37.062Z,79.28
2022-10-19T08:02:54.780Z,80.08
2022-10-19T08:05:27.076Z,80.06
2022-10-19T08:06:30.168Z,79.40
2022-10-19T08:07:33.239Z,79.42
2022-10-19T08:08:37.507Z,79.31
2022-10-19T08:09:52.732Z,80.57
2022-10-19T08:10:57.293Z,81.31
2022-10-19T08:12:00.820Z,80.79
2022-10-19T08:13:03.834Z,81.06
2022-10-19T08:14:07.282Z,80.64
2022-10-19T08:15:10.054Z,80.73
2022-10-19T08:16:23.745Z,79.86
2022-10-19T08:17:26.869Z,80.85
2022-10-19T08:18:30.307Z,79.76
2022-10-19T08:19:35.017Z,79.54
2022-10-19T08:20:37.253Z,79.22
2022-10-19T08:21:41.945Z,79.48
2022-10-19T08:22:45.608Z,80.87
2022-10-19T08:23:47.622Z,80.24
2022-10-19T08:24:50.928Z,79.42
2022-10-19T08:25:59.790Z,79.29
2022-10-19T08:27:03.774Z,79.72
2022-10-19T08:28:07.029Z,79.88
2022-10-19T08:29:13.407Z,80.48
2022-10-19T08:30:24.007Z,80.52
2022-10-19T08:31:28.466Z,79.84
2022-10-19T08:32:30.930Z,80.20
2022-10-19T08:33:34.499Z,79.52
2022-10-19T08:34:38.730Z,78.84
2022-10-19T08:35:42.036Z,78.62
2022-10-19T08:36:44.897Z,79.20
2022-10-19T08:37:49.078Z,79.23
2022-10-19T08:38:51.777Z,79.29
2022-10-19T08:39:55.837Z,79.44
2022-10-19T08:40:58.690Z,80.19
2022-10-19T08:42:05.945Z,80.09
2022-10-19T08:43:14.823Z,80.23
2022-10-19T08:44:48.868Z,80.90
2022-10-19T08:45:58.044Z,81.50
2022-10-19T08:47:09.322Z,81.36
2022-10-19T08:48:26.251Z,79.47
2022-10-19T08:49:31.555Z,80.54
2022-10-19T08:50:40.005Z,79.37
2022-10-19T08:51:44.748Z,79.50
2022-10-19T08:52:51.876Z,79.89
2022-10-19T08:53:58.790Z,79.18
2022-10-19T08:55:02.939Z,79.48
2022-10-19T08:56:32.527Z,79.55
2022-10-19T08:57:47.768Z,80.83
2022-10-19T08:59:02.644Z,80.55
2022-10-19T09:00:14.037Z,80.17
2022-10-19T09:01:29.436Z,80.58
2022-10-19T09:02:50.465Z,80.22
2022-10-19T09:03:58.954Z,80.72
2022-10-19T09:05:07.127Z,80.87
2022-10-19T09:06:23.255Z,80.86
2022-10-19T09:07:30.383Z,81.46
2022-10-19T09:08:35.207Z,81.46
2022-10-19T09:09:44.096Z,81.29
2022-10-19T09:10:50.384Z,81.54
2022-10-19T09:11:59.611Z,81.31
2022-10-19T09:13:06.587Z,81.41
2022-10-19T09:14:15.393Z,81.74
2022-10-19T09:15:23.303Z,81.55
2022-10-19T09:16:27.208Z,81.91
2022-10-19T09:17:32.611Z,81.42
2022-10-19T09:18:35.676Z,80.89
2022-10-19T09:19:38.863Z,80.61
2022-10-19T09:20:45.908Z,80.67
2022-10-19T09:21:54.464Z,81.99
2022-10-19T09:23:07.674Z,81.57
2022-10-19T09:24:29.177Z,81.84
2022-10-19T09:25:37.061Z,81.16
2022-10-19T09:26:50.652Z,80.99
2022-10-19T09:28:04.474Z,80.68
2022-10-19T09:29:22.959Z,79.86
2022-10-19T09:30:31.665Z,80.34
2022-10-19T09:31:40.656Z,80.22
2022-10-19T09:32:44.876Z,80.72
2022-10-19T09:33:55.830Z,80.94
2022-10-19T09:35:03.119Z,81.04
2022-10-19T09:36:22.328Z,80.85
2022-10-19T09:37:39.594Z,80.85
2022-10-19T09:38:41.979Z,81.02
2022-10-19T09:39:52.359Z,81.52
2022-10-19T09:40:59.060Z,81.64
2022-10-19T09:42:09.798Z,80.95
2022-10-19T09:43:20.680Z,81.00
2022-10-19T09:44:24.266Z,80.62
2022-10-19T09:45:45.509Z,80.93
2022-10-19T09:46:53.444Z,81.42
2022-10-19T09:47:58.271Z,81.53
2022-10-19T09:49:06.096Z,81.58
2022-10-19T09:50:22.292Z,81.80
2022-10-19T09:51:24.443Z,82.00
2022-10-19T09:52:36.308Z,82.13
2022-10-19T09:53:44.898Z,80.68
2022-10-19T09:54:52.203Z,81.64
2022-10-19T09:56:00.611Z,81.22
2022-10-19T09:57:04.308Z,81.47
2022-10-19T09:58:18.449Z,81.97
2022-10-19T09:59:23.676Z,81.91
2022-10-19T10:00:34.008Z,82.09
2022-10-19T10:01:43.168Z,82.08
2022-10-19T10:02:51.368Z,81.95
2022-10-19T10:04:05.743Z,81.98
2022-10-19T10:05:16.224Z,81.78
2022-10-19T10:06:22.294Z,81.71
2022-10-19T10:07:33.200Z,82.08
2022-10-19T10:08:40.979Z,82.08
2022-10-19T10:09:45.059Z,81.72
2022-10-19T10:11:07.067Z,82.01
2022-10-19T10:12:16.474Z,81.35
2022-10-19T10:13:22.924Z,81.83
2022-10-19T10:14:30.708Z,81.34
2022-10-19T10:15:43.879Z,81.37
2022-10-19T10:16:52.399Z,81.65
2022-10-19T10:17:57.128Z,81.97
2022-10-19T10:19:02.199Z,81.92
2022-10-19T10:20:23.614Z,81.61
2022-10-19T10:21:28.805Z,81.95
2022-10-19T10:22:34.254Z,82.26
2022-10-19T10:23:38.738Z,81.75
2022-10-19T10:24:52.600Z,80.75
2022-10-19T10:25:57.246Z,81.00
2022-10-19T10:27:02.035Z,81.12
2022-10-19T10:28:18.714Z,81.22
2022-10-19T10:29:23.632Z,81.09
2022-10-19T10:30:29.126Z,80.63
2022-10-19T10:31:32.187Z,80.57
2022-10-19T10:32:37.815Z,80.57
2022-10-19T10:33:45.778Z,80.97
2022-10-19T10:34:59.912Z,81.39
2022-10-19T10:36:10.366Z,81.26
2022-10-19T10:37:20.509Z,81.39
2022-10-19T10:38:25.523Z,81.30
2022-10-19T10:39:31.314Z,80.96
2022-10-19T10:40:34.581Z,81.08
2022-10-19T10:41:40.515Z,80.63
2022-10-19T10:42:45.482Z,80.57
2022-10-19T10:44:00.784Z,80.31
2022-10-19T10:45:18.288Z,80.15
2022-10-19T10:46:25.573Z,81.12
2022-10-19T10:47:29.697Z,81.14
2022-10-19T10:48:37.535Z,81.46
2022-10-19T10:49:42.849Z,81.01
2022-10-19T10:50:45.585Z,80.84
2022-10-19T10:51:53.087Z,80.81
2022-10-19T10:52:58.247Z,81.37
2022-10-19T10:54:19.322Z,81.42
2022-10-19T10:55:22.965Z,81.17
2022-10-19T10:56:28.739Z,81.39
2022-10-19T10:57:35.831Z,80.98
2022-10-19T10:58:47.701Z,81.24
2022-10-19T10:59:57.410Z,81.05
2022-10-19T11:01:07.667Z,80.86
2022-10-19T11:02:21.560Z,80.70
2022-10-19T11:03:28.926Z,80.81
2022-10-19T11:04:37.550Z,80.51
2022-10-19T11:05:44.939Z,80.56
2022-10-19T11:06:55.134Z,80.51
2022-10-19T11:08:08.463Z,80.41
2022-10-19T11:09:17.747Z,79.59
2022-10-19T11:10:28.107Z,79.90
2022-10-19T11:11:37.576Z,79.97
2022-10-19T11:12:43.637Z,79.47
2022-10-19T11:13:52.713Z,79.96
2022-10-19T11:15:01.856Z,79.97
2022-10-19T11:16:13.458Z,79.41
2022-10-19T11:17:21.506Z,79.09
2022-10-19T11:18:29.256Z,78.89
2022-10-19T11:19:35.449Z,78.95
2022-10-19T11:20:48.005Z,78.62
2022-10-19T11:21:56.794Z,78.71
2022-10-19T11:23:09.695Z,78.84
2022-10-19T11:24:19.201Z,79.26
2022-10-19T11:25:33.894Z,78.95
2022-10-19T11:26:47.865Z,78.95
2022-10-19T11:28:01.550Z,78.46
2022-10-19T11:29:18.359Z,78.91
2022-10-19T11:30:23.243Z,79.07
2022-10-19T11:31:36.971Z,78.94
2022-10-19T11:32:47.887Z,79.10
2022-10-19T11:34:00.909Z,78.51
2022-10-19T11:35:20.711Z,77.50
2022-10-19T11:36:37.139Z,77.86
2022-10-19T11:38:17.421Z,78.22
2022-10-19T11:39:29.341Z,77.63
2022-10-19T11:40:45.807Z,77.06
2022-10-19T11:42:07.642Z,77.44
2022-10-19T11:43:16.077Z,77.47
2022-10-19T11:44:30.352Z,77.88
2022-10-19T11:45:48.580Z,76.80
2022-10-19T11:47:08.133Z,76.69
2022-10-19T11:48:43.839Z,76.97
2022-10-19T11:49:58.346Z,77.20
2022-10-19T11:51:20.802Z,76.39
2022-10-19T11:52:33.986Z,75.87
2022-10-19T11:53:51.698Z,76.03
2022-10-19T11:55:07.635Z,75.78
2022-10-19T11:56:15.095Z,75.69
2022-10-19T11:57:23.141Z,76.05
2022-10-19T11:58:37.718Z,76.23
2022-10-19T12:00:14.602Z,76.04
2022-10-19T12:01:40.934Z,75.96
2022-10-19T12:03:15.870Z,76.14
2022-10-19T12:04:40.741Z,75.69
2022-10-19T12:05:57.337Z,76.01
2022-10-19T12:07:09.942Z,75.62
2022-10-19T12:08:26.620Z,74.92
2022-10-19T12:09:41.835Z,74.97
2022-10-19T12:10:53.073Z,75.04
2022-10-19T12:12:09.807Z,75.09
2022-10-19T12:13:16.599Z,75.30
2022-10-19T12:14:25.100Z,75.48
2022-10-19T12:15:32.380Z,75.19
2022-10-19T12:16:40.338Z,75.15
2022-10-19T12:17:47.683Z,75.04
2022-10-19T12:18:54.808Z,75.32
2022-10-19T12:20:01.795Z,74.53
2022-10-19T12:21:11.757Z,73.48
2022-10-19T12:22:17.906Z,74.18
2022-10-19T12:23:29.148Z,74.50
2022-10-19T12:24:34.013Z,74.78
2022-10-19T12:25:41.489Z,74.33
2022-10-19T12:26:46.230Z,74.50
2022-10-19T12:27:51.565Z,74.18
2022-10-19T12:28:58.976Z,74.49
2022-10-19T12:30:07.233Z,74.36
2022-10-19T12:31:11.780Z,74.47
2022-10-19T12:32:16.897Z,75.07
2022-10-19T12:33:26.793Z,74.71
2022-10-19T12:34:37.027Z,75.16
2022-10-19T12:36:00.824Z,74.22
2022-10-19T12:37:09.654Z,74.26
2022-10-19T12:38:20.057Z,74.74
2022-10-19T12:39:32.179Z,74.65
2022-10-19T12:40:41.555Z,74.91
2022-10-19T12:41:52.507Z,74.92
2022-10-19T12:43:04.607Z,74.51
2022-10-19T12:44:25.994Z,74.43
2022-10-19T12:45:33.632Z,74.98
2022-10-19T12:46:41.166Z,74.53
2022-10-19T12:48:22.152Z,74.82
2022-10-19T12:49:45.559Z,74.49
2022-10-19T12:51:03.422Z,74.42
2022-10-19T12:52:08.453Z,74.37
2022-10-19T12:53:23.809Z,74.45
2022-10-19T12:54:29.117Z,74.18
2022-10-19T12:55:34.939Z,73.70
2022-10-19T12:56:49.887Z,73.99
2022-10-19T12:58:02.022Z,74.39
2022-10-19T12:59:05.110Z,73.92
2022-10-19T13:00:20.722Z,74.62
2022-10-19T13:01:27.829Z,73.93
2022-10-19T13:02:34.152Z,74.02
2022-10-19T13:03:40.515Z,74.05
2022-10-19T13:04:54.387Z,73.63
2022-10-19T13:05:58.726Z,73.75
2022-10-19T13:07:03.960Z,73.37
2022-10-19T13:08:10.691Z,73.70
2022-10-19T13:09:25.524Z,73.81
2022-10-19T13:10:29.235Z,73.82
2022-10-19T13:11:36.555Z,73.63
2022-10-19T13:12:47.134Z,73.28
2022-10-19T13:14:03.226Z,73.46
2022-10-19T13:15:05.820Z,73.79
2022-10-19T13:16:47.440Z,73.75
2022-10-19T13:17:51.942Z,73.34
2022-10-19T13:19:19.473Z,72.95
2022-10-19T13:20:49.512Z,73.14
2022-10-19T13:22:24.007Z,73.34
2022-10-19T13:23:38.908Z,72.54
2022-10-19T13:24:42.006Z,72.60
2022-10-19T13:25:45.293Z,73.19
2022-10-19T13:26:47.285Z,72.40
2022-10-19T13:27:51.059Z,72.76
2022-10-19T13:28:54.990Z,73.21
2022-10-19T13:29:58.351Z,73.08
2022-10-19T13:31:08.137Z,73.03
2022-10-19T13:32:47.082Z,72.97
2022-10-19T13:33:50.875Z,72.63
2022-10-19T13:34:54.528Z,72.58
2022-10-19T13:36:07.787Z,72.02
2022-10-19T13:37:14.186Z,72.65
2022-10-19T13:38:27.621Z,72.42
2022-10-19T13:39:31.314Z,73.02
2022-10-19T13:40:34.215Z,72.58
2022-10-19T13:41:50.369Z,72.65
2022-10-19T13:42:58.619Z,73.07
2022-10-19T13:44:17.036Z,73.20
2022-10-19T13:45:25.526Z,72.53
2022-10-19T13:46:46.784Z,72.68
2022-10-19T13:47:54.118Z,72.04
2022-10-19T13:49:11.981Z,72.26
2022-10-19T13:50:33.303Z,72.17
2022-10-19T13:51:46.538Z,72.04
2022-10-19T13:53:11.949Z,72.14
2022-10-19T13:54:29.380Z,71.89
2022-10-19T13:56:00.769Z,71.86
2022-10-19T13:57:19.294Z,71.76
2022-10-19T13:58:41.781Z,71.76
2022-10-19T14:00:07.082Z,72.45
2022-10-19T14:01:30.399Z,71.52
2022-10-19T14:02:54.544Z,71.89
2022-10-19T14:04:18.791Z,71.79
2022-10-19T14:05:42.693Z,71.54
2022-10-19T14:06:48.838Z,71.82
2022-10-19T14:08:04.914Z,71.42
2022-10-19T14:09:41.598Z,71.84
2022-10-19T14:11:01.010Z,71.46
2022-10-19T14:12:09.091Z,71.54
2022-10-19T14:13:15.550Z,72.06
2022-10-19T14:14:19.824Z,72.06
2022-10-19T14:15:28.359Z,72.02
2022-10-19T14:16:31.583Z,72.05
2022-10-19T14:17:43.506Z,72.15
2022-10-19T14:18:54.677Z,71.93
2022-10-19T14:19:59.890Z,71.92
2022-10-19T14:21:04.365Z,71.69
2022-10-19T14:22:20.750Z,72.33
2022-10-19T14:23:25.304Z,72.25
2022-10-19T14:24:31.380Z,72.36
2022-10-19T14:25:34.529Z,72.55
2022-10-19T14:26:36.566Z,72.65